Novi Pazar, Serbia
Current Conditions -  °F | °C
As of 5:00 AM on Saturday 20 Dec 2014 (Local Time) from LYKV Reporting Station
Moderate Fog Moderate Fog  
Wind Chill: 28°   Ceiling: Unl
Heat Index: 28°   Visibility: 0.06mi
Dew Point: 28°   Wind: 2mph
Humidity: 100%   Direction: NA
Pressure: 30.09"   Gusts: NA
Location:  43.15°N, 20.52°E
Report Text: LYKV 200300Z VRB02KT 0100 FZFG VV/// M02/M02 Q1019 NOSIG
Loading
Personal Weather Stations






























Interactive Weather Map New forecast layout! Learn more

10-Day Weather Forecast

Advertisements
Track Severe Weather on mobile